Weather at El Pardillero Airport

Public forecast

Using degrees Celsius for public forecast. Weather courtesy of forecast.io.

Closest aviation weather report (METAR) to El Pardillero Airport

Closest report is Barquisimeto International Airport, 89.9 nm (166.6 km) NNE.

2024/04/16 17:00 (retrieved 44 minutes ago)

SVBM 161700Z /////KT 9999 SCT016 32/18 Q1013

Closest aviation forecast (TAF) to El Pardillero Airport

Forecast is more than 12 hours old.

Closest forecast is La Chinita International Airport, 165.6 nm (306.6 km) NW.

2024/04/15 18:45 (retrieved 23 hours ago)

TAF SVMC 151600Z 1518/1618 07005KT 9999 SCT016 TX36/19Z TN25/08Z BECMG 1518/1523 11003KT 9999 SCT016